sensor_id;sensor_type;location;lat;lon;timestamp;temperature;humidity
18797;DHT22;9526;52.612;13.300;2023-07-20T00:00:07;16.80;99.90
18797;DHT22;9526;52.612;13.300;2023-07-20T00:02:34;16.80;99.90
18797;DHT22;9526;52.612;13.300;2023-07-20T00:04:58;16.80;99.90
18797;DHT22;9526;52.612;13.300;2023-07-20T00:07:22;16.70;99.90
18797;DHT22;9526;52.612;13.300;2023-07-20T00:09:48;16.70;99.90
18797;DHT22;9526;52.612;13.300;2023-07-20T00:12:12;16.70;99.90
18797;DHT22;9526;52.612;13.300;2023-07-20T00:14:35;16.60;99.90
18797;DHT22;9526;52.612;13.300;2023-07-20T00:16:59;16.60;99.90
18797;DHT22;9526;52.612;13.300;2023-07-20T00:19:23;16.60;99.90
18797;DHT22;9526;52.612;13.300;2023-07-20T00:21:47;16.60;99.90
18797;DHT22;9526;52.612;13.300;2023-07-20T00:24:11;16.50;99.90
18797;DHT22;9526;52.612;13.300;2023-07-20T00:26:36;16.50;99.90
18797;DHT22;9526;52.612;13.300;2023-07-20T00:29:00;16.50;99.90
18797;DHT22;9526;52.612;13.300;2023-07-20T00:31:23;16.40;99.90
18797;DHT22;9526;52.612;13.300;2023-07-20T00:33:47;16.40;99.90
18797;DHT22;9526;52.612;13.300;2023-07-20T00:36:11;16.40;99.90
18797;DHT22;9526;52.612;13.300;2023-07-20T00:38:37;16.40;99.90
18797;DHT22;9526;52.612;13.300;2023-07-20T00:41:01;16.40;99.90
18797;DHT22;9526;52.612;13.300;2023-07-20T00:43:26;16.40;99.90
18797;DHT22;9526;52.612;13.300;2023-07-20T00:45:50;16.30;99.90
18797;DHT22;9526;52.612;13.300;2023-07-20T00:48:14;16.30;99.90
18797;DHT22;9526;52.612;13.300;2023-07-20T00:50:39;16.20;99.90
18797;DHT22;9526;52.612;13.300;2023-07-20T00:53:04;16.30;99.90
18797;DHT22;9526;52.612;13.300;2023-07-20T00:55:28;16.20;99.90
18797;DHT22;9526;52.612;13.300;2023-07-20T00:57:52;16.20;99.90
18797;DHT22;9526;52.612;13.300;2023-07-20T01:00:18;16.20;99.90
18797;DHT22;9526;52.612;13.300;2023-07-20T01:02:41;16.20;99.90
18797;DHT22;9526;52.612;13.300;2023-07-20T01:05:06;16.20;99.90
18797;DHT22;9526;52.612;13.300;2023-07-20T01:07:34;16.20;99.90
18797;DHT22;9526;52.612;13.300;2023-07-20T01:10:12;16.30;99.90
18797;DHT22;9526;52.612;13.300;2023-07-20T01:12:43;16.20;99.90
18797;DHT22;9526;52.612;13.300;2023-07-20T01:15:08;16.20;99.90
18797;DHT22;9526;52.612;13.300;2023-07-20T01:17:34;16.20;99.90
18797;DHT22;9526;52.612;13.300;2023-07-20T01:19:58;16.20;99.90
18797;DHT22;9526;52.612;13.300;2023-07-20T01:25:34;16.20;99.90
18797;DHT22;9526;52.612;13.300;2023-07-20T01:28:25;16.20;99.90
18797;DHT22;9526;52.612;13.300;2023-07-20T01:31:14;16.20;99.90
18797;DHT22;9526;52.612;13.300;2023-07-20T01:33:44;16.30;99.90
18797;DHT22;9526;52.612;13.300;2023-07-20T01:36:11;16.30;99.90
18797;DHT22;9526;52.612;13.300;2023-07-20T01:38:35;16.30;99.90
18797;DHT22;9526;52.612;13.300;2023-07-20T01:40:59;16.30;99.90
18797;DHT22;9526;52.612;13.300;2023-07-20T01:43:23;16.30;99.90
18797;DHT22;9526;52.612;13.300;2023-07-20T01:45:47;16.40;99.90
18797;DHT22;9526;52.612;13.300;2023-07-20T01:48:12;16.40;99.90
18797;DHT22;9526;52.612;13.300;2023-07-20T01:50:36;16.40;99.90
18797;DHT22;9526;52.612;13.300;2023-07-20T01:53:00;16.40;99.90
18797;DHT22;9526;52.612;13.300;2023-07-20T01:55:24;16.40;99.90
18797;DHT22;9526;52.612;13.300;2023-07-20T01:57:49;16.50;99.90
18797;DHT22;9526;52.612;13.300;2023-07-20T02:00:13;16.50;99.90
18797;DHT22;9526;52.612;13.300;2023-07-20T02:02:37;16.50;99.90
18797;DHT22;9526;52.612;13.300;2023-07-20T02:05:02;16.50;99.90
18797;DHT22;9526;52.612;13.300;2023-07-20T02:07:26;16.50;99.90
18797;DHT22;9526;52.612;13.300;2023-07-20T02:09:50;16.50;99.90
18797;DHT22;9526;52.612;13.300;2023-07-20T02:12:15;16.50;99.90
18797;DHT22;9526;52.612;13.300;2023-07-20T02:14:38;16.50;99.90
18797;DHT22;9526;52.612;13.300;2023-07-20T02:17:02;16.50;99.90
18797;DHT22;9526;52.612;13.300;2023-07-20T02:19:26;16.50;99.90
18797;DHT22;9526;52.612;13.300;2023-07-20T02:21:51;16.60;99.90
18797;DHT22;9526;52.612;13.300;2023-07-20T02:24:15;16.60;99.90
18797;DHT22;9526;52.612;13.300;2023-07-20T02:26:39;16.50;99.90
18797;DHT22;9526;52.612;13.300;2023-07-20T02:29:03;16.50;99.90
18797;DHT22;9526;52.612;13.300;2023-07-20T02:31:26;16.40;99.90
18797;DHT22;9526;52.612;13.300;2023-07-20T02:33:50;16.40;99.90
18797;DHT22;9526;52.612;13.300;2023-07-20T02:36:14;16.50;99.90
18797;DHT22;9526;52.612;13.300;2023-07-20T02:38:41;16.40;99.90
18797;DHT22;9526;52.612;13.300;2023-07-20T02:41:05;16.40;99.90
18797;DHT22;9526;52.612;13.300;2023-07-20T02:43:29;16.40;99.90
18797;DHT22;9526;52.612;13.300;2023-07-20T02:45:53;16.40;99.90
18797;DHT22;9526;52.612;13.300;2023-07-20T02:48:16;16.40;99.90
18797;DHT22;9526;52.612;13.300;2023-07-20T02:50:44;16.40;99.90
18797;DHT22;9526;52.612;13.300;2023-07-20T02:53:08;16.40;99.90
18797;DHT22;9526;52.612;13.300;2023-07-20T02:55:33;16.40;99.90
18797;DHT22;9526;52.612;13.300;2023-07-20T02:57:56;16.40;99.90
18797;DHT22;9526;52.612;13.300;2023-07-20T03:00:20;16.40;99.90
18797;DHT22;9526;52.612;13.300;2023-07-20T03:02:45;16.40;99.90
18797;DHT22;9526;52.612;13.300;2023-07-20T03:05:09;16.40;99.90
18797;DHT22;9526;52.612;13.300;2023-07-20T03:07:33;16.40;99.90
18797;DHT22;9526;52.612;13.300;2023-07-20T03:09:57;16.50;99.90
18797;DHT22;9526;52.612;13.300;2023-07-20T03:12:22;16.50;99.90
18797;DHT22;9526;52.612;13.300;2023-07-20T03:14:46;16.50;99.90
18797;DHT22;9526;52.612;13.300;2023-07-20T03:17:10;16.50;99.90
18797;DHT22;9526;52.612;13.300;2023-07-20T03:19:34;16.50;99.90
18797;DHT22;9526;52.612;13.300;2023-07-20T03:21:57;16.30;99.90
18797;DHT22;9526;52.612;13.300;2023-07-20T03:24:21;16.30;99.90
18797;DHT22;9526;52.612;13.300;2023-07-20T03:26:45;16.30;99.90
18797;DHT22;9526;52.612;13.300;2023-07-20T03:29:11;16.30;99.90
18797;DHT22;9526;52.612;13.300;2023-07-20T03:31:35;16.30;99.90
18797;DHT22;9526;52.612;13.300;2023-07-20T03:33:58;16.30;99.90
18797;DHT22;9526;52.612;13.300;2023-07-20T03:36:22;16.20;99.90
18797;DHT22;9526;52.612;13.300;2023-07-20T03:38:46;16.20;99.90
18797;DHT22;9526;52.612;13.300;2023-07-20T03:41:10;16.30;99.90
18797;DHT22;9526;52.612;13.300;2023-07-20T03:43:34;16.40;99.90
18797;DHT22;9526;52.612;13.300;2023-07-20T03:45:59;16.30;99.90
18797;DHT22;9526;52.612;13.300;2023-07-20T03:48:24;16.30;99.90
18797;DHT22;9526;52.612;13.300;2023-07-20T03:50:49;16.30;99.90
18797;DHT22;9526;52.612;13.300;2023-07-20T03:53:15;16.40;99.90
18797;DHT22;9526;52.612;13.300;2023-07-20T03:55:39;16.40;99.90
18797;DHT22;9526;52.612;13.300;2023-07-20T03:58:03;16.40;99.90
18797;DHT22;9526;52.612;13.300;2023-07-20T04:00:27;16.40;99.90
18797;DHT22;9526;52.612;13.300;2023-07-20T04:02:52;16.50;99.90
18797;DHT22;9526;52.612;13.300;2023-07-20T04:05:16;16.50;99.90
18797;DHT22;9526;52.612;13.300;2023-07-20T04:07:40;16.50;99.90
18797;DHT22;9526;52.612;13.300;2023-07-20T04:10:04;16.50;99.90
18797;DHT22;9526;52.612;13.300;2023-07-20T04:12:29;16.60;99.90
18797;DHT22;9526;52.612;13.300;2023-07-20T04:14:53;16.60;99.90
18797;DHT22;9526;52.612;13.300;2023-07-20T04:17:17;16.60;99.90
18797;DHT22;9526;52.612;13.300;2023-07-20T04:19:42;16.60;99.90
18797;DHT22;9526;52.612;13.300;2023-07-20T04:22:06;16.60;99.90
18797;DHT22;9526;52.612;13.300;2023-07-20T04:24:30;16.60;99.90
18797;DHT22;9526;52.612;13.300;2023-07-20T04:26:54;16.60;99.90
18797;DHT22;9526;52.612;13.300;2023-07-20T04:29:17;16.60;99.90
18797;DHT22;9526;52.612;13.300;2023-07-20T04:31:41;16.70;99.90
18797;DHT22;9526;52.612;13.300;2023-07-20T04:34:05;16.70;99.90
18797;DHT22;9526;52.612;13.300;2023-07-20T04:36:32;16.80;99.90
18797;DHT22;9526;52.612;13.300;2023-07-20T04:38:55;16.80;99.90
18797;DHT22;9526;52.612;13.300;2023-07-20T04:41:19;16.80;99.90
18797;DHT22;9526;52.612;13.300;2023-07-20T04:43:44;16.80;99.90
18797;DHT22;9526;52.612;13.300;2023-07-20T04:46:12;16.80;99.90
18797;DHT22;9526;52.612;13.300;2023-07-20T04:48:37;16.90;99.90
18797;DHT22;9526;52.612;13.300;2023-07-20T04:51:03;16.90;99.90
18797;DHT22;9526;52.612;13.300;2023-07-20T04:53:28;17.00;99.90
18797;DHT22;9526;52.612;13.300;2023-07-20T04:55:53;17.00;99.90
18797;DHT22;9526;52.612;13.300;2023-07-20T04:58:18;17.10;99.90
18797;DHT22;9526;52.612;13.300;2023-07-20T05:00:42;17.10;99.90
18797;DHT22;9526;52.612;13.300;2023-07-20T05:03:06;17.10;99.90
18797;DHT22;9526;52.612;13.300;2023-07-20T05:05:30;17.20;99.90
18797;DHT22;9526;52.612;13.300;2023-07-20T05:07:54;17.20;99.90
18797;DHT22;9526;52.612;13.300;2023-07-20T05:10:19;17.20;99.90
18797;DHT22;9526;52.612;13.300;2023-07-20T05:12:43;17.20;99.90
18797;DHT22;9526;52.612;13.300;2023-07-20T05:15:07;17.30;99.90
18797;DHT22;9526;52.612;13.300;2023-07-20T05:17:33;17.30;99.90
18797;DHT22;9526;52.612;13.300;2023-07-20T05:19:57;17.30;99.90
18797;DHT22;9526;52.612;13.300;2023-07-20T05:22:21;17.40;99.90
18797;DHT22;9526;52.612;13.300;2023-07-20T05:24:46;17.50;99.90
18797;DHT22;9526;52.612;13.300;2023-07-20T05:27:11;17.50;99.90
18797;DHT22;9526;52.612;13.300;2023-07-20T05:29:35;17.50;99.90
18797;DHT22;9526;52.612;13.300;2023-07-20T05:31:59;17.50;99.90
18797;DHT22;9526;52.612;13.300;2023-07-20T05:34:23;17.60;99.90
18797;DHT22;9526;52.612;13.300;2023-07-20T05:36:46;17.50;99.90
18797;DHT22;9526;52.612;13.300;2023-07-20T05:39:10;17.50;99.90
18797;DHT22;9526;52.612;13.300;2023-07-20T05:41:34;17.60;99.90
18797;DHT22;9526;52.612;13.300;2023-07-20T05:43:59;17.70;99.90
18797;DHT22;9526;52.612;13.300;2023-07-20T05:46:22;17.80;99.90
18797;DHT22;9526;52.612;13.300;2023-07-20T05:48:49;17.80;99.90
18797;DHT22;9526;52.612;13.300;2023-07-20T05:51:13;17.90;99.90
18797;DHT22;9526;52.612;13.300;2023-07-20T05:53:37;17.90;99.90
18797;DHT22;9526;52.612;13.300;2023-07-20T05:56:01;17.90;99.90
18797;DHT22;9526;52.612;13.300;2023-07-20T05:58:26;18.00;99.90
18797;DHT22;9526;52.612;13.300;2023-07-20T06:00:51;18.20;99.90
18797;DHT22;9526;52.612;13.300;2023-07-20T06:03:14;18.20;99.90
18797;DHT22;9526;52.612;13.300;2023-07-20T06:05:39;18.30;99.90
18797;DHT22;9526;52.612;13.300;2023-07-20T06:08:03;18.40;99.90
18797;DHT22;9526;52.612;13.300;2023-07-20T06:10:27;18.50;99.90
18797;DHT22;9526;52.612;13.300;2023-07-20T06:12:49;18.60;99.90
18797;DHT22;9526;52.612;13.300;2023-07-20T06:15:26;18.80;99.90
18797;DHT22;9526;52.612;13.300;2023-07-20T06:17:54;18.70;99.90
18797;DHT22;9526;52.612;13.300;2023-07-20T06:20:18;18.70;99.90
18797;DHT22;9526;52.612;13.300;2023-07-20T06:22:41;18.90;99.90
18797;DHT22;9526;52.612;13.300;2023-07-20T06:25:06;19.00;99.90
18797;DHT22;9526;52.612;13.300;2023-07-20T06:27:30;19.20;99.90
18797;DHT22;9526;52.612;13.300;2023-07-20T06:29:53;19.30;99.90
18797;DHT22;9526;52.612;13.300;2023-07-20T06:32:17;19.70;99.90
18797;DHT22;9526;52.612;13.300;2023-07-20T06:34:42;20.10;99.90
18797;DHT22;9526;52.612;13.300;2023-07-20T06:37:05;20.90;99.90
18797;DHT22;9526;52.612;13.300;2023-07-20T06:39:30;20.80;99.90
18797;DHT22;9526;52.612;13.300;2023-07-20T06:41:56;20.30;99.90
18797;DHT22;9526;52.612;13.300;2023-07-20T06:44:20;20.30;99.90
18797;DHT22;9526;52.612;13.300;2023-07-20T06:46:43;20.40;99.90
18797;DHT22;9526;52.612;13.300;2023-07-20T06:49:07;20.30;99.90
18797;DHT22;9526;52.612;13.300;2023-07-20T06:51:35;20.10;99.90
18797;DHT22;9526;52.612;13.300;2023-07-20T06:53:58;20.20;99.90
18797;DHT22;9526;52.612;13.300;2023-07-20T06:56:22;20.20;99.90
18797;DHT22;9526;52.612;13.300;2023-07-20T06:58:48;20.40;99.90
18797;DHT22;9526;52.612;13.300;2023-07-20T07:01:11;20.60;99.90
18797;DHT22;9526;52.612;13.300;2023-07-20T07:03:35;20.60;99.90
18797;DHT22;9526;52.612;13.300;2023-07-20T07:06:01;20.50;99.90
18797;DHT22;9526;52.612;13.300;2023-07-20T07:08:26;20.30;99.90
18797;DHT22;9526;52.612;13.300;2023-07-20T07:10:50;20.30;99.90
18797;DHT22;9526;52.612;13.300;2023-07-20T07:13:14;20.60;99.90
18797;DHT22;9526;52.612;13.300;2023-07-20T07:15:39;20.70;99.90
18797;DHT22;9526;52.612;13.300;2023-07-20T07:18:03;20.90;99.90
18797;DHT22;9526;52.612;13.300;2023-07-20T07:20:27;21.00;99.90
18797;DHT22;9526;52.612;13.300;2023-07-20T07:22:51;21.00;99.90
18797;DHT22;9526;52.612;13.300;2023-07-20T07:25:17;21.00;99.90
18797;DHT22;9526;52.612;13.300;2023-07-20T07:27:44;20.90;99.90
18797;DHT22;9526;52.612;13.300;2023-07-20T07:30:09;20.90;99.90
18797;DHT22;9526;52.612;13.300;2023-07-20T07:32:33;20.80;99.90
18797;DHT22;9526;52.612;13.300;2023-07-20T07:34:57;20.80;99.90
18797;DHT22;9526;52.612;13.300;2023-07-20T07:37:22;20.70;99.90
18797;DHT22;9526;52.612;13.300;2023-07-20T07:39:46;20.40;99.90
18797;DHT22;9526;52.612;13.300;2023-07-20T07:42:11;20.60;99.90
18797;DHT22;9526;52.612;13.300;2023-07-20T07:44:35;20.80;99.90
18797;DHT22;9526;52.612;13.300;2023-07-20T07:46:58;21.00;99.90
18797;DHT22;9526;52.612;13.300;2023-07-20T07:49:22;21.00;99.90
18797;DHT22;9526;52.612;13.300;2023-07-20T07:51:46;21.00;99.90
18797;DHT22;9526;52.612;13.300;2023-07-20T07:54:10;21.10;99.90
18797;DHT22;9526;52.612;13.300;2023-07-20T07:56:34;21.20;99.90
18797;DHT22;9526;52.612;13.300;2023-07-20T07:58:59;21.20;99.90
18797;DHT22;9526;52.612;13.300;2023-07-20T08:01:22;21.20;99.90
18797;DHT22;9526;52.612;13.300;2023-07-20T08:03:46;21.10;99.90
18797;DHT22;9526;52.612;13.300;2023-07-20T08:06:10;21.20;99.90
18797;DHT22;9526;52.612;13.300;2023-07-20T08:08:35;21.20;99.90
18797;DHT22;9526;52.612;13.300;2023-07-20T08:10:59;21.20;99.90
18797;DHT22;9526;52.612;13.300;2023-07-20T08:13:28;21.10;99.90
18797;DHT22;9526;52.612;13.300;2023-07-20T08:15:53;21.30;99.90
18797;DHT22;9526;52.612;13.300;2023-07-20T08:18:17;21.50;99.90
18797;DHT22;9526;52.612;13.300;2023-07-20T08:20:43;21.40;99.90
18797;DHT22;9526;52.612;13.300;2023-07-20T08:23:07;21.40;99.90
18797;DHT22;9526;52.612;13.300;2023-07-20T08:25:31;21.50;99.90
18797;DHT22;9526;52.612;13.300;2023-07-20T08:27:55;21.80;99.90
18797;DHT22;9526;52.612;13.300;2023-07-20T08:30:21;21.70;99.90
18797;DHT22;9526;52.612;13.300;2023-07-20T08:32:47;21.70;99.90
18797;DHT22;9526;52.612;13.300;2023-07-20T08:35:11;21.70;99.90
18797;DHT22;9526;52.612;13.300;2023-07-20T08:37:37;21.60;99.90
18797;DHT22;9526;52.612;13.300;2023-07-20T08:40:00;21.70;99.90
18797;DHT22;9526;52.612;13.300;2023-07-20T08:42:26;21.70;99.90
18797;DHT22;9526;52.612;13.300;2023-07-20T08:44:52;21.60;99.90
18797;DHT22;9526;52.612;13.300;2023-07-20T08:47:17;21.70;99.90
18797;DHT22;9526;52.612;13.300;2023-07-20T08:49:43;21.80;99.90
18797;DHT22;9526;52.612;13.300;2023-07-20T08:52:07;21.60;99.90
18797;DHT22;9526;52.612;13.300;2023-07-20T08:54:31;21.80;99.90
18797;DHT22;9526;52.612;13.300;2023-07-20T08:56:57;21.80;99.90
18797;DHT22;9526;52.612;13.300;2023-07-20T08:59:23;22.00;99.90
18797;DHT22;9526;52.612;13.300;2023-07-20T09:01:48;21.90;99.90
18797;DHT22;9526;52.612;13.300;2023-07-20T09:04:13;21.80;99.90
18797;DHT22;9526;52.612;13.300;2023-07-20T09:06:39;22.10;99.90
18797;DHT22;9526;52.612;13.300;2023-07-20T09:09:06;22.00;99.90
18797;DHT22;9526;52.612;13.300;2023-07-20T09:11:31;21.90;99.90
18797;DHT22;9526;52.612;13.300;2023-07-20T09:14:05;21.90;99.90
18797;DHT22;9526;52.612;13.300;2023-07-20T09:16:29;21.90;99.90
18797;DHT22;9526;52.612;13.300;2023-07-20T09:18:53;21.70;99.90
18797;DHT22;9526;52.612;13.300;2023-07-20T09:21:18;21.70;99.90
18797;DHT22;9526;52.612;13.300;2023-07-20T09:23:43;21.60;99.90
18797;DHT22;9526;52.612;13.300;2023-07-20T09:26:12;21.50;99.90
18797;DHT22;9526;52.612;13.300;2023-07-20T09:28:41;21.40;99.90
18797;DHT22;9526;52.612;13.300;2023-07-20T09:31:16;21.40;99.90
18797;DHT22;9526;52.612;13.300;2023-07-20T09:33:41;21.40;99.90
18797;DHT22;9526;52.612;13.300;2023-07-20T09:36:22;21.40;99.90
18797;DHT22;9526;52.612;13.300;2023-07-20T09:39:08;21.30;99.90
18797;DHT22;9526;52.612;13.300;2023-07-20T09:41:39;21.30;99.90
18797;DHT22;9526;52.612;13.300;2023-07-20T09:44:07;21.40;99.90
18797;DHT22;9526;52.612;13.300;2023-07-20T09:46:41;21.50;99.90
18797;DHT22;9526;52.612;13.300;2023-07-20T09:49:09;21.40;99.90
18797;DHT22;9526;52.612;13.300;2023-07-20T09:51:36;21.40;99.90
18797;DHT22;9526;52.612;13.300;2023-07-20T09:54:00;21.20;99.90
18797;DHT22;9526;52.612;13.300;2023-07-20T09:56:27;21.20;99.90
18797;DHT22;9526;52.612;13.300;2023-07-20T09:58:51;21.20;99.90
18797;DHT22;9526;52.612;13.300;2023-07-20T10:01:20;21.20;99.90
18797;DHT22;9526;52.612;13.300;2023-07-20T10:03:47;21.40;99.90
18797;DHT22;9526;52.612;13.300;2023-07-20T10:06:18;21.50;99.90
18797;DHT22;9526;52.612;13.300;2023-07-20T10:08:47;21.30;99.90
18797;DHT22;9526;52.612;13.300;2023-07-20T10:11:15;21.10;99.90
18797;DHT22;9526;52.612;13.300;2023-07-20T10:13:41;21.20;99.90
18797;DHT22;9526;52.612;13.300;2023-07-20T10:16:10;21.10;99.90
18797;DHT22;9526;52.612;13.300;2023-07-20T10:18:41;21.30;99.90
18797;DHT22;9526;52.612;13.300;2023-07-20T10:21:07;21.40;99.90
18797;DHT22;9526;52.612;13.300;2023-07-20T10:23:34;21.60;99.90
18797;DHT22;9526;52.612;13.300;2023-07-20T10:25:58;21.80;99.90
18797;DHT22;9526;52.612;13.300;2023-07-20T10:28:22;21.90;99.90
18797;DHT22;9526;52.612;13.300;2023-07-20T10:30:48;21.70;99.90
18797;DHT22;9526;52.612;13.300;2023-07-20T10:33:12;21.60;99.90
18797;DHT22;9526;52.612;13.300;2023-07-20T10:35:51;21.70;99.90
18797;DHT22;9526;52.612;13.300;2023-07-20T10:38:15;21.90;99.90
18797;DHT22;9526;52.612;13.300;2023-07-20T10:40:39;21.70;99.90
18797;DHT22;9526;52.612;13.300;2023-07-20T10:43:04;21.80;99.90
18797;DHT22;9526;52.612;13.300;2023-07-20T10:45:37;21.80;99.90
18797;DHT22;9526;52.612;13.300;2023-07-20T10:48:05;22.10;99.90
18797;DHT22;9526;52.612;13.300;2023-07-20T10:50:30;21.70;99.90
18797;DHT22;9526;52.612;13.300;2023-07-20T10:53:04;21.80;99.90
18797;DHT22;9526;52.612;13.300;2023-07-20T10:55:33;22.20;99.90
18797;DHT22;9526;52.612;13.300;2023-07-20T10:58:07;22.40;99.90
18797;DHT22;9526;52.612;13.300;2023-07-20T11:00:32;22.10;99.90
18797;DHT22;9526;52.612;13.300;2023-07-20T11:02:58;22.20;99.90
18797;DHT22;9526;52.612;13.300;2023-07-20T11:05:37;22.60;99.90
18797;DHT22;9526;52.612;13.300;2023-07-20T11:08:04;22.90;99.90
18797;DHT22;9526;52.612;13.300;2023-07-20T11:10:29;23.40;99.90
18797;DHT22;9526;52.612;13.300;2023-07-20T11:13:17;23.40;99.90
18797;DHT22;9526;52.612;13.300;2023-07-20T11:15:45;23.30;99.90
18797;DHT22;9526;52.612;13.300;2023-07-20T11:18:11;23.20;99.90
18797;DHT22;9526;52.612;13.300;2023-07-20T11:20:38;23.30;99.90
18797;DHT22;9526;52.612;13.300;2023-07-20T11:23:01;23.50;99.90
18797;DHT22;9526;52.612;13.300;2023-07-20T11:25:25;23.90;99.90
18797;DHT22;9526;52.612;13.300;2023-07-20T11:27:59;23.90;99.90
18797;DHT22;9526;52.612;13.300;2023-07-20T11:30:23;23.40;99.90
18797;DHT22;9526;52.612;13.300;2023-07-20T11:32:48;23.50;99.90
18797;DHT22;9526;52.612;13.300;2023-07-20T11:35:12;23.70;99.90
18797;DHT22;9526;52.612;13.300;2023-07-20T11:37:40;23.70;99.90
18797;DHT22;9526;52.612;13.300;2023-07-20T11:40:05;23.40;99.90
18797;DHT22;9526;52.612;13.300;2023-07-20T11:42:30;22.80;99.90
18797;DHT22;9526;52.612;13.300;2023-07-20T11:44:56;22.60;99.90
18797;DHT22;9526;52.612;13.300;2023-07-20T11:47:22;22.60;99.90
18797;DHT22;9526;52.612;13.300;2023-07-20T11:49:52;22.50;99.90
18797;DHT22;9526;52.612;13.300;2023-07-20T11:52:17;22.50;99.90
18797;DHT22;9526;52.612;13.300;2023-07-20T11:54:43;22.20;99.90
18797;DHT22;9526;52.612;13.300;2023-07-20T11:57:16;22.10;99.90
18797;DHT22;9526;52.612;13.300;2023-07-20T11:59:52;22.00;99.90
18797;DHT22;9526;52.612;13.300;2023-07-20T12:02:19;22.00;99.90
18797;DHT22;9526;52.612;13.300;2023-07-20T12:04:43;21.80;99.90
18797;DHT22;9526;52.612;13.300;2023-07-20T12:07:07;21.50;99.90
18797;DHT22;9526;52.612;13.300;2023-07-20T12:09:31;21.40;99.90
18797;DHT22;9526;52.612;13.300;2023-07-20T12:12:13;21.20;99.90
18797;DHT22;9526;52.612;13.300;2023-07-20T12:14:37;21.20;99.90
18797;DHT22;9526;52.612;13.300;2023-07-20T12:17:01;21.20;99.90
18797;DHT22;9526;52.612;13.300;2023-07-20T12:19:25;21.20;99.90
18797;DHT22;9526;52.612;13.300;2023-07-20T12:21:49;21.40;99.90
18797;DHT22;9526;52.612;13.300;2023-07-20T12:24:12;21.50;99.90
18797;DHT22;9526;52.612;13.300;2023-07-20T12:26:36;21.40;99.90
18797;DHT22;9526;52.612;13.300;2023-07-20T12:29:02;21.70;99.90
18797;DHT22;9526;52.612;13.300;2023-07-20T12:31:27;22.10;99.90
18797;DHT22;9526;52.612;13.300;2023-07-20T12:33:52;22.40;99.90
18797;DHT22;9526;52.612;13.300;2023-07-20T12:36:17;22.80;99.90
18797;DHT22;9526;52.612;13.300;2023-07-20T12:38:42;22.80;99.90
18797;DHT22;9526;52.612;13.300;2023-07-20T12:41:05;22.90;99.90
18797;DHT22;9526;52.612;13.300;2023-07-20T12:43:29;23.00;99.90
18797;DHT22;9526;52.612;13.300;2023-07-20T12:45:55;22.80;99.90
18797;DHT22;9526;52.612;13.300;2023-07-20T12:48:19;23.10;99.90
18797;DHT22;9526;52.612;13.300;2023-07-20T12:50:43;23.30;99.90
18797;DHT22;9526;52.612;13.300;2023-07-20T12:53:06;23.60;99.90
18797;DHT22;9526;52.612;13.300;2023-07-20T12:55:31;24.10;99.90
18797;DHT22;9526;52.612;13.300;2023-07-20T12:57:54;24.50;99.90
18797;DHT22;9526;52.612;13.300;2023-07-20T13:00:19;24.80;99.90
18797;DHT22;9526;52.612;13.300;2023-07-20T13:02:45;24.90;99.90
18797;DHT22;9526;52.612;13.300;2023-07-20T13:05:09;25.20;99.20
18797;DHT22;9526;52.612;13.300;2023-07-20T13:07:34;25.40;97.40
18797;DHT22;9526;52.612;13.300;2023-07-20T13:10:02;25.50;99.90
18797;DHT22;9526;52.612;13.300;2023-07-20T13:12:26;25.70;96.60
18797;DHT22;9526;52.612;13.300;2023-07-20T13:14:50;25.80;99.00
18797;DHT22;9526;52.612;13.300;2023-07-20T13:17:14;25.70;97.10
18797;DHT22;9526;52.612;13.300;2023-07-20T13:19:39;25.90;96.40
18797;DHT22;9526;52.612;13.300;2023-07-20T13:22:03;26.20;99.00
18797;DHT22;9526;52.612;13.300;2023-07-20T13:24:27;26.10;93.40
18797;DHT22;9526;52.612;13.300;2023-07-20T13:26:50;25.50;92.90
18797;DHT22;9526;52.612;13.300;2023-07-20T13:29:14;25.80;96.10
18797;DHT22;9526;52.612;13.300;2023-07-20T13:31:39;26.20;93.60
18797;DHT22;9526;52.612;13.300;2023-07-20T13:34:03;26.70;94.80
18797;DHT22;9526;52.612;13.300;2023-07-20T13:36:30;26.90;95.00
18797;DHT22;9526;52.612;13.300;2023-07-20T13:38:58;27.00;92.20
18797;DHT22;9526;52.612;13.300;2023-07-20T13:41:21;26.80;91.70
18797;DHT22;9526;52.612;13.300;2023-07-20T13:43:46;26.00;91.20
18797;DHT22;9526;52.612;13.300;2023-07-20T13:46:09;26.30;94.00
18797;DHT22;9526;52.612;13.300;2023-07-20T13:48:38;26.60;94.20
18797;DHT22;9526;52.612;13.300;2023-07-20T13:51:02;26.70;90.40
18797;DHT22;9526;52.612;13.300;2023-07-20T13:53:27;26.50;91.20
18797;DHT22;9526;52.612;13.300;2023-07-20T13:55:55;26.30;93.10
18797;DHT22;9526;52.612;13.300;2023-07-20T13:58:22;26.40;92.40
18797;DHT22;9526;52.612;13.300;2023-07-20T14:00:45;26.70;91.40
18797;DHT22;9526;52.612;13.300;2023-07-20T14:03:09;26.90;91.20
18797;DHT22;9526;52.612;13.300;2023-07-20T14:05:35;26.70;90.80
18797;DHT22;9526;52.612;13.300;2023-07-20T14:08:02;26.80;91.10
18797;DHT22;9526;52.612;13.300;2023-07-20T14:10:27;26.80;93.00
18797;DHT22;9526;52.612;13.300;2023-07-20T14:12:51;26.80;90.10
18797;DHT22;9526;52.612;13.300;2023-07-20T14:15:14;26.80;91.60
18797;DHT22;9526;52.612;13.300;2023-07-20T14:17:38;26.50;93.00
18797;DHT22;9526;52.612;13.300;2023-07-20T14:20:03;26.60;91.20
18797;DHT22;9526;52.612;13.300;2023-07-20T14:22:43;26.70;88.70
18797;DHT22;9526;52.612;13.300;2023-07-20T14:25:07;26.80;90.70
18797;DHT22;9526;52.612;13.300;2023-07-20T14:27:32;26.50;87.80
18797;DHT22;9526;52.612;13.300;2023-07-20T14:29:59;26.80;91.60
18797;DHT22;9526;52.612;13.300;2023-07-20T14:32:22;26.70;92.70
18797;DHT22;9526;52.612;13.300;2023-07-20T14:34:48;26.80;88.70
18797;DHT22;9526;52.612;13.300;2023-07-20T14:37:11;26.60;87.00
18797;DHT22;9526;52.612;13.300;2023-07-20T14:39:35;26.60;90.60
18797;DHT22;9526;52.612;13.300;2023-07-20T14:41:59;26.80;91.70
18797;DHT22;9526;52.612;13.300;2023-07-20T14:44:24;26.80;89.30
18797;DHT22;9526;52.612;13.300;2023-07-20T14:46:48;26.70;90.00
18797;DHT22;9526;52.612;13.300;2023-07-20T14:49:31;26.90;90.30
18797;DHT22;9526;52.612;13.300;2023-07-20T14:51:55;27.00;86.70
18797;DHT22;9526;52.612;13.300;2023-07-20T14:54:22;26.90;88.50
18797;DHT22;9526;52.612;13.300;2023-07-20T14:56:50;26.90;84.90
18797;DHT22;9526;52.612;13.300;2023-07-20T14:59:14;27.00;89.00
18797;DHT22;9526;52.612;13.300;2023-07-20T15:01:41;26.90;84.50
18797;DHT22;9526;52.612;13.300;2023-07-20T15:04:05;26.70;86.60
18797;DHT22;9526;52.612;13.300;2023-07-20T15:06:29;26.80;86.30
18797;DHT22;9526;52.612;13.300;2023-07-20T15:08:54;26.70;87.90
18797;DHT22;9526;52.612;13.300;2023-07-20T15:11:17;26.60;82.10
18797;DHT22;9526;52.612;13.300;2023-07-20T15:13:41;26.60;87.70
18797;DHT22;9526;52.612;13.300;2023-07-20T15:16:05;26.50;85.30
18797;DHT22;9526;52.612;13.300;2023-07-20T15:18:30;26.40;84.70
18797;DHT22;9526;52.612;13.300;2023-07-20T15:21:08;25.90;84.40